ミラノ/マルペンサ の空港の天気 - METARとTAF

ミラノ・マルペンサ国際空港 ( LIMC / MXP ) - イタリア ミラノ
飛行場実況気象(Metar)
観測時間05/25 12:20 CEST (05/25 10:20 UTC)
風向・風速東南東 4m/s
視程10km以上
天気現象
全天の4割程度の雲 雲底高度 910m
気温23℃
湿度57%
気圧1019hPa
METARLIMC 251020Z 12007KT 080V150 9999 SCT030 23/14 Q1019 NOSIG
過去の天気等 Google飛行場航空写真 Wunderground天気予報

過去48時間のMETAR

飛行場予報(TAF)
発表時間: 5/25 07:00 CEST (5/25 05:00 UTC)
予報対象時間: 25日8時 CEST ~ 26日14時 CEST
風向・風速東北東 3m/s
視程10km以上
なし
TAF LIMC 250500Z 2506/2612 06005KT CAVOK